Terminal Aerodrome Forecast
Issued by NWS

Home | Current Version | Previous Version | Text Only | Print | Product List | Glossary On
Versions: 1 2 3 4 5 6 7 8 9 10 11 12 13
000
FTUS42 TJSJ 242320
TAFJSJ
TAF
TJSJ 242320Z 2500/2524 10006KT P6SM VCSH FEW028 SCT070
     FM251430 08013KT P6SM VCSH FEW025 SCT030 SCT070
     FM252200 07006KT P6SM FEW025=

USA.gov is the U.S. government's official web portal to all federal, state and local government web resources and services.